sensor_id;sensor_type;location;lat;lon;timestamp;pressure;altitude;pressure_sealevel;temperature;humidity
9740;BME280;4909;42.680;26.324;2022-07-23T00:00:17;98695.28;;;25.36;41.56
9740;BME280;4909;42.680;26.324;2022-07-23T00:02:46;98698.66;;;25.38;41.99
9740;BME280;4909;42.680;26.324;2022-07-23T00:05:13;98697.44;;;25.33;42.38
9740;BME280;4909;42.680;26.324;2022-07-23T00:07:40;98691.19;;;25.15;43.01
9740;BME280;4909;42.680;26.324;2022-07-23T00:10:07;98692.06;;;25.15;42.82
9740;BME280;4909;42.680;26.324;2022-07-23T00:12:34;98707.13;;;25.09;43.09
9740;BME280;4909;42.680;26.324;2022-07-23T00:15:02;98700.06;;;24.99;43.38
9740;BME280;4909;42.680;26.324;2022-07-23T00:17:29;98681.00;;;24.91;43.20
9740;BME280;4909;42.680;26.324;2022-07-23T00:19:58;98694.81;;;24.97;43.83
9740;BME280;4909;42.680;26.324;2022-07-23T00:22:25;98695.50;;;24.99;43.54
9740;BME280;4909;42.680;26.324;2022-07-23T00:24:53;98702.09;;;24.97;43.40
9740;BME280;4909;42.680;26.324;2022-07-23T00:27:20;98689.16;;;24.91;43.55
9740;BME280;4909;42.680;26.324;2022-07-23T00:29:46;98694.31;;;24.84;43.91
9740;BME280;4909;42.680;26.324;2022-07-23T00:32:13;98695.72;;;24.71;44.02
9740;BME280;4909;42.680;26.324;2022-07-23T00:34:40;98692.38;;;24.77;44.79
9740;BME280;4909;42.680;26.324;2022-07-23T00:37:08;98681.06;;;24.81;44.69
9740;BME280;4909;42.680;26.324;2022-07-23T00:39:35;98679.88;;;24.84;44.81
9740;BME280;4909;42.680;26.324;2022-07-23T00:42:02;98678.19;;;24.83;44.42
9740;BME280;4909;42.680;26.324;2022-07-23T00:44:29;98683.44;;;24.84;44.63
9740;BME280;4909;42.680;26.324;2022-07-23T00:46:58;98684.91;;;24.79;44.06
9740;BME280;4909;42.680;26.324;2022-07-23T00:49:27;98675.72;;;24.72;44.02
9740;BME280;4909;42.680;26.324;2022-07-23T00:51:54;98680.38;;;24.61;44.46
9740;BME280;4909;42.680;26.324;2022-07-23T00:54:26;98680.78;;;24.49;44.78
9740;BME280;4909;42.680;26.324;2022-07-23T00:56:54;98684.16;;;24.51;44.24
9740;BME280;4909;42.680;26.324;2022-07-23T00:59:21;98684.88;;;24.53;44.69
9740;BME280;4909;42.680;26.324;2022-07-23T01:01:47;98681.91;;;24.46;45.27
9740;BME280;4909;42.680;26.324;2022-07-23T01:04:15;98658.97;;;24.41;45.12
9740;BME280;4909;42.680;26.324;2022-07-23T01:06:43;98676.13;;;24.59;44.61
9740;BME280;4909;42.680;26.324;2022-07-23T01:09:10;98677.50;;;24.63;44.64
9740;BME280;4909;42.680;26.324;2022-07-23T01:11:39;98676.34;;;24.65;45.01
9740;BME280;4909;42.680;26.324;2022-07-23T01:14:09;98682.16;;;24.71;44.50
9740;BME280;4909;42.680;26.324;2022-07-23T01:16:35;98668.03;;;24.67;44.04
9740;BME280;4909;42.680;26.324;2022-07-23T01:19:03;98683.47;;;24.66;44.12
9740;BME280;4909;42.680;26.324;2022-07-23T01:21:34;98682.47;;;24.67;44.27
9740;BME280;4909;42.680;26.324;2022-07-23T01:24:04;98684.31;;;24.67;43.88
9740;BME280;4909;42.680;26.324;2022-07-23T01:26:31;98674.72;;;24.73;43.75
9740;BME280;4909;42.680;26.324;2022-07-23T01:28:57;98679.50;;;24.79;43.58
9740;BME280;4909;42.680;26.324;2022-07-23T01:31:24;98675.78;;;24.80;43.78
9740;BME280;4909;42.680;26.324;2022-07-23T01:33:53;98674.84;;;24.71;44.04
9740;BME280;4909;42.680;26.324;2022-07-23T01:36:20;98661.66;;;24.76;44.37
9740;BME280;4909;42.680;26.324;2022-07-23T01:38:47;98678.50;;;24.80;44.35
9740;BME280;4909;42.680;26.324;2022-07-23T01:41:15;98676.47;;;24.82;44.45
9740;BME280;4909;42.680;26.324;2022-07-23T01:43:42;98662.00;;;24.73;43.86
9740;BME280;4909;42.680;26.324;2022-07-23T01:46:09;98677.50;;;24.81;44.01
9740;BME280;4909;42.680;26.324;2022-07-23T01:48:36;98669.50;;;24.79;44.19
9740;BME280;4909;42.680;26.324;2022-07-23T01:51:03;98656.47;;;24.83;44.07
9740;BME280;4909;42.680;26.324;2022-07-23T01:53:30;98662.59;;;24.85;43.83
9740;BME280;4909;42.680;26.324;2022-07-23T01:55:57;98661.53;;;24.78;43.42
9740;BME280;4909;42.680;26.324;2022-07-23T01:58:26;98666.56;;;24.73;43.33
9740;BME280;4909;42.680;26.324;2022-07-23T02:00:53;98664.56;;;24.57;44.17
9740;BME280;4909;42.680;26.324;2022-07-23T02:03:21;98665.72;;;24.54;44.38
9740;BME280;4909;42.680;26.324;2022-07-23T02:05:48;98659.84;;;24.59;44.72
9740;BME280;4909;42.680;26.324;2022-07-23T02:08:16;98664.78;;;24.63;44.58
9740;BME280;4909;42.680;26.324;2022-07-23T02:10:43;98661.69;;;24.58;44.29
9740;BME280;4909;42.680;26.324;2022-07-23T02:13:11;98624.09;;;24.28;44.60
9740;BME280;4909;42.680;26.324;2022-07-23T02:15:39;98659.06;;;24.49;45.03
9740;BME280;4909;42.680;26.324;2022-07-23T02:18:06;98664.63;;;24.47;44.80
9740;BME280;4909;42.680;26.324;2022-07-23T02:20:33;98659.50;;;24.27;45.41
9740;BME280;4909;42.680;26.324;2022-07-23T02:23:04;98655.31;;;24.32;45.52
9740;BME280;4909;42.680;26.324;2022-07-23T02:25:31;98659.53;;;24.44;45.20
9740;BME280;4909;42.680;26.324;2022-07-23T02:27:57;98663.78;;;24.47;44.72
9740;BME280;4909;42.680;26.324;2022-07-23T02:30:25;98663.47;;;24.32;45.21
9740;BME280;4909;42.680;26.324;2022-07-23T02:32:53;98672.00;;;24.37;45.10
9740;BME280;4909;42.680;26.324;2022-07-23T02:35:20;98669.19;;;24.29;45.28
9740;BME280;4909;42.680;26.324;2022-07-23T02:37:46;98669.19;;;24.29;45.27
9740;BME280;4909;42.680;26.324;2022-07-23T02:40:13;98671.75;;;24.31;44.73
9740;BME280;4909;42.680;26.324;2022-07-23T02:42:40;98664.47;;;24.04;46.12
9740;BME280;4909;42.680;26.324;2022-07-23T02:45:08;98669.31;;;24.10;46.27
9740;BME280;4909;42.680;26.324;2022-07-23T02:47:35;98665.28;;;24.14;45.34
9740;BME280;4909;42.680;26.324;2022-07-23T02:50:04;98670.13;;;24.20;45.73
9740;BME280;4909;42.680;26.324;2022-07-23T02:52:32;98670.66;;;24.23;45.49
9740;BME280;4909;42.680;26.324;2022-07-23T02:54:59;98677.75;;;24.34;44.15
9740;BME280;4909;42.680;26.324;2022-07-23T02:57:26;98671.00;;;24.38;44.27
9740;BME280;4909;42.680;26.324;2022-07-23T02:59:52;98673.09;;;24.44;44.16
9740;BME280;4909;42.680;26.324;2022-07-23T03:02:19;98670.84;;;24.40;45.14
9740;BME280;4909;42.680;26.324;2022-07-23T03:04:46;98669.34;;;24.45;44.49
9740;BME280;4909;42.680;26.324;2022-07-23T03:07:15;98679.19;;;24.46;44.49
9740;BME280;4909;42.680;26.324;2022-07-23T03:09:42;98683.63;;;24.47;44.77
9740;BME280;4909;42.680;26.324;2022-07-23T03:12:09;98693.38;;;24.40;44.47
9740;BME280;4909;42.680;26.324;2022-07-23T03:14:36;98692.31;;;24.33;44.79
9740;BME280;4909;42.680;26.324;2022-07-23T03:17:03;98702.03;;;24.26;45.36
9740;BME280;4909;42.680;26.324;2022-07-23T03:19:30;98703.75;;;24.27;45.26
9740;BME280;4909;42.680;26.324;2022-07-23T03:21:57;98697.00;;;24.31;44.92
9740;BME280;4909;42.680;26.324;2022-07-23T03:24:25;98687.09;;;24.22;45.28
9740;BME280;4909;42.680;26.324;2022-07-23T03:27:13;98698.66;;;24.24;45.51
9740;BME280;4909;42.680;26.324;2022-07-23T03:29:39;98682.47;;;24.05;45.86
9740;BME280;4909;42.680;26.324;2022-07-23T03:32:06;98697.53;;;24.17;46.29
9740;BME280;4909;42.680;26.324;2022-07-23T03:34:33;98688.09;;;24.11;46.07
9740;BME280;4909;42.680;26.324;2022-07-23T03:37:00;98687.03;;;24.04;46.67
9740;BME280;4909;42.680;26.324;2022-07-23T03:39:29;98681.28;;;24.07;47.20
9740;BME280;4909;42.680;26.324;2022-07-23T03:41:56;98683.53;;;24.12;47.09
9740;BME280;4909;42.680;26.324;2022-07-23T03:44:23;98683.63;;;24.30;51.61
9740;BME280;4909;42.680;26.324;2022-07-23T03:46:50;98686.09;;;24.41;50.13
9740;BME280;4909;42.680;26.324;2022-07-23T03:49:16;98694.47;;;24.47;48.81
9740;BME280;4909;42.680;26.324;2022-07-23T03:51:43;98690.75;;;24.48;49.30
9740;BME280;4909;42.680;26.324;2022-07-23T03:54:10;98696.94;;;24.41;49.20
9740;BME280;4909;42.680;26.324;2022-07-23T03:56:39;98692.75;;;24.46;50.35
9740;BME280;4909;42.680;26.324;2022-07-23T03:59:06;98694.16;;;24.50;50.25
9740;BME280;4909;42.680;26.324;2022-07-23T04:01:33;98686.13;;;24.58;47.70
9740;BME280;4909;42.680;26.324;2022-07-23T04:03:59;98688.91;;;24.66;48.63
9740;BME280;4909;42.680;26.324;2022-07-23T04:06:26;98687.50;;;24.62;47.33
9740;BME280;4909;42.680;26.324;2022-07-23T04:08:53;98696.41;;;24.55;47.48
9740;BME280;4909;42.680;26.324;2022-07-23T04:11:20;98694.25;;;24.58;48.09
9740;BME280;4909;42.680;26.324;2022-07-23T04:13:49;98698.91;;;24.66;47.23
9740;BME280;4909;42.680;26.324;2022-07-23T04:16:15;98695.16;;;24.85;48.32
9740;BME280;4909;42.680;26.324;2022-07-23T04:18:42;98699.91;;;25.00;46.05
9740;BME280;4909;42.680;26.324;2022-07-23T04:21:09;98692.00;;;25.07;46.60
9740;BME280;4909;42.680;26.324;2022-07-23T04:23:36;98697.47;;;25.15;46.12
9740;BME280;4909;42.680;26.324;2022-07-23T04:26:03;98689.09;;;25.26;45.58
9740;BME280;4909;42.680;26.324;2022-07-23T04:28:30;98694.56;;;25.34;45.18
9740;BME280;4909;42.680;26.324;2022-07-23T04:30:58;98697.31;;;25.42;44.83
9740;BME280;4909;42.680;26.324;2022-07-23T04:33:25;98701.06;;;25.41;44.58
9740;BME280;4909;42.680;26.324;2022-07-23T04:35:52;98682.50;;;25.37;46.07
9740;BME280;4909;42.680;26.324;2022-07-23T04:38:19;98694.97;;;25.47;46.11
9740;BME280;4909;42.680;26.324;2022-07-23T04:40:46;98704.44;;;25.61;46.08
9740;BME280;4909;42.680;26.324;2022-07-23T04:43:13;98689.16;;;25.60;45.38
9740;BME280;4909;42.680;26.324;2022-07-23T04:45:40;98698.84;;;25.63;45.57
9740;BME280;4909;42.680;26.324;2022-07-23T04:48:08;98698.34;;;25.67;45.58
9740;BME280;4909;42.680;26.324;2022-07-23T04:50:38;98689.22;;;25.76;45.09
9740;BME280;4909;42.680;26.324;2022-07-23T04:53:05;98690.16;;;25.93;44.78
9740;BME280;4909;42.680;26.324;2022-07-23T04:55:31;98695.97;;;25.98;43.99
9740;BME280;4909;42.680;26.324;2022-07-23T04:57:58;98697.69;;;26.07;43.66
9740;BME280;4909;42.680;26.324;2022-07-23T05:00:25;98698.41;;;26.17;44.23
9740;BME280;4909;42.680;26.324;2022-07-23T05:02:52;98699.66;;;26.31;43.91
9740;BME280;4909;42.680;26.324;2022-07-23T05:05:20;98692.38;;;26.39;43.64
9740;BME280;4909;42.680;26.324;2022-07-23T05:07:47;98695.63;;;26.51;43.35
9740;BME280;4909;42.680;26.324;2022-07-23T05:10:14;98664.16;;;26.49;42.94
9740;BME280;4909;42.680;26.324;2022-07-23T05:12:41;98696.69;;;26.82;43.16
9740;BME280;4909;42.680;26.324;2022-07-23T05:15:08;98690.94;;;26.94;42.41
9740;BME280;4909;42.680;26.324;2022-07-23T05:17:35;98701.66;;;27.03;42.44
9740;BME280;4909;42.680;26.324;2022-07-23T05:20:02;98698.59;;;27.14;42.77
9740;BME280;4909;42.680;26.324;2022-07-23T05:22:30;98699.09;;;27.18;42.50
9740;BME280;4909;42.680;26.324;2022-07-23T05:24:58;98701.34;;;27.14;42.08
9740;BME280;4909;42.680;26.324;2022-07-23T05:27:25;98699.78;;;27.12;41.83
9740;BME280;4909;42.680;26.324;2022-07-23T05:29:52;98690.06;;;27.25;42.22
9740;BME280;4909;42.680;26.324;2022-07-23T05:32:19;98698.56;;;27.31;42.00
9740;BME280;4909;42.680;26.324;2022-07-23T05:34:45;98703.69;;;27.50;41.18
9740;BME280;4909;42.680;26.324;2022-07-23T05:37:12;98700.78;;;27.43;41.32
9740;BME280;4909;42.680;26.324;2022-07-23T05:39:40;98696.88;;;27.38;40.02
9740;BME280;4909;42.680;26.324;2022-07-23T05:42:07;98693.63;;;27.42;40.85
9740;BME280;4909;42.680;26.324;2022-07-23T05:44:34;98699.44;;;27.39;40.69
9740;BME280;4909;42.680;26.324;2022-07-23T05:47:01;98703.00;;;27.64;40.72
9740;BME280;4909;42.680;26.324;2022-07-23T05:49:28;98703.97;;;27.71;40.12
9740;BME280;4909;42.680;26.324;2022-07-23T05:51:55;98700.25;;;27.64;39.93
9740;BME280;4909;42.680;26.324;2022-07-23T05:54:22;98695.84;;;27.31;39.59
9740;BME280;4909;42.680;26.324;2022-07-23T05:56:50;98696.00;;;27.37;39.75
9740;BME280;4909;42.680;26.324;2022-07-23T05:59:18;98698.09;;;27.35;41.31
9740;BME280;4909;42.680;26.324;2022-07-23T06:01:45;98699.75;;;27.36;40.63
9740;BME280;4909;42.680;26.324;2022-07-23T06:04:12;98695.66;;;27.56;39.84
9740;BME280;4909;42.680;26.324;2022-07-23T06:06:38;98692.56;;;27.67;39.49
9740;BME280;4909;42.680;26.324;2022-07-23T06:09:05;98704.78;;;27.80;38.93
9740;BME280;4909;42.680;26.324;2022-07-23T06:11:32;98692.13;;;28.03;38.02
9740;BME280;4909;42.680;26.324;2022-07-23T06:14:00;98691.38;;;28.09;38.10
9740;BME280;4909;42.680;26.324;2022-07-23T06:16:28;98692.97;;;28.12;38.66
9740;BME280;4909;42.680;26.324;2022-07-23T06:18:55;98698.13;;;28.29;38.49
9740;BME280;4909;42.680;26.324;2022-07-23T06:21:22;98704.69;;;28.51;37.72
9740;BME280;4909;42.680;26.324;2022-07-23T06:23:48;98696.03;;;28.70;37.92
9740;BME280;4909;42.680;26.324;2022-07-23T06:26:15;98684.63;;;28.89;38.18
9740;BME280;4909;42.680;26.324;2022-07-23T06:28:42;98687.97;;;29.00;37.17
9740;BME280;4909;42.680;26.324;2022-07-23T06:31:10;98697.03;;;29.15;36.69
9740;BME280;4909;42.680;26.324;2022-07-23T06:33:37;98691.53;;;29.23;35.94
9740;BME280;4909;42.680;26.324;2022-07-23T06:36:04;98692.81;;;29.50;36.49
9740;BME280;4909;42.680;26.324;2022-07-23T06:38:31;98689.16;;;29.72;36.53
9740;BME280;4909;42.680;26.324;2022-07-23T06:40:58;98687.00;;;29.53;35.62
9740;BME280;4909;42.680;26.324;2022-07-23T06:43:25;98689.34;;;29.56;34.73
9740;BME280;4909;42.680;26.324;2022-07-23T06:45:52;98686.88;;;29.46;34.50
9740;BME280;4909;42.680;26.324;2022-07-23T06:48:20;98683.69;;;29.57;33.68
9740;BME280;4909;42.680;26.324;2022-07-23T06:50:48;98683.16;;;29.91;34.62
9740;BME280;4909;42.680;26.324;2022-07-23T06:53:15;98680.47;;;30.12;34.54
9740;BME280;4909;42.680;26.324;2022-07-23T06:55:41;98678.84;;;30.33;35.20
9740;BME280;4909;42.680;26.324;2022-07-23T06:58:08;98677.88;;;30.40;34.41
9740;BME280;4909;42.680;26.324;2022-07-23T07:00:35;98676.09;;;30.33;33.45
9740;BME280;4909;42.680;26.324;2022-07-23T07:03:21;98684.00;;;30.42;34.13
9740;BME280;4909;42.680;26.324;2022-07-23T07:05:48;98682.22;;;30.49;32.93
9740;BME280;4909;42.680;26.324;2022-07-23T07:08:15;98669.25;;;30.58;33.40
9740;BME280;4909;42.680;26.324;2022-07-23T07:10:41;98687.22;;;30.82;33.24
9740;BME280;4909;42.680;26.324;2022-07-23T07:13:08;98673.59;;;30.88;33.00
9740;BME280;4909;42.680;26.324;2022-07-23T07:15:35;98677.53;;;30.86;33.35
9740;BME280;4909;42.680;26.324;2022-07-23T07:18:02;98678.44;;;31.08;33.33
9740;BME280;4909;42.680;26.324;2022-07-23T07:20:31;98679.38;;;31.21;33.19
9740;BME280;4909;42.680;26.324;2022-07-23T07:22:58;98675.44;;;31.30;33.41
9740;BME280;4909;42.680;26.324;2022-07-23T07:25:25;98672.97;;;31.42;32.78
9740;BME280;4909;42.680;26.324;2022-07-23T07:27:52;98683.94;;;31.14;32.46
9740;BME280;4909;42.680;26.324;2022-07-23T07:30:19;98673.94;;;31.28;32.27
9740;BME280;4909;42.680;26.324;2022-07-23T07:32:46;98678.16;;;31.02;32.30
9740;BME280;4909;42.680;26.324;2022-07-23T07:35:13;98677.41;;;31.15;32.42
9740;BME280;4909;42.680;26.324;2022-07-23T07:37:41;98671.69;;;31.38;32.36
9740;BME280;4909;42.680;26.324;2022-07-23T07:40:08;98670.97;;;31.50;31.35
9740;BME280;4909;42.680;26.324;2022-07-23T07:42:44;98678.50;;;31.70;31.95
9740;BME280;4909;42.680;26.324;2022-07-23T07:45:11;98671.88;;;31.92;32.44
9740;BME280;4909;42.680;26.324;2022-07-23T07:47:38;98670.69;;;32.08;30.47
9740;BME280;4909;42.680;26.324;2022-07-23T07:50:05;98658.66;;;32.09;30.38
9740;BME280;4909;42.680;26.324;2022-07-23T07:52:33;98664.34;;;32.07;30.01
9740;BME280;4909;42.680;26.324;2022-07-23T07:55:04;98664.03;;;32.23;30.45
9740;BME280;4909;42.680;26.324;2022-07-23T07:57:31;98659.22;;;32.39;29.65
9740;BME280;4909;42.680;26.324;2022-07-23T07:59:58;98662.22;;;32.57;29.07
9740;BME280;4909;42.680;26.324;2022-07-23T08:02:25;98664.75;;;32.58;28.91
9740;BME280;4909;42.680;26.324;2022-07-23T08:04:51;98666.06;;;32.62;28.82
9740;BME280;4909;42.680;26.324;2022-07-23T08:07:18;98661.63;;;32.68;29.25
9740;BME280;4909;42.680;26.324;2022-07-23T08:09:45;98666.31;;;32.81;28.29
9740;BME280;4909;42.680;26.324;2022-07-23T08:12:39;98651.94;;;32.85;28.89
9740;BME280;4909;42.680;26.324;2022-07-23T08:15:07;98657.66;;;33.03;28.93
9740;BME280;4909;42.680;26.324;2022-07-23T08:17:34;98652.41;;;33.15;28.26
9740;BME280;4909;42.680;26.324;2022-07-23T08:20:02;98653.47;;;33.27;28.10
9740;BME280;4909;42.680;26.324;2022-07-23T08:22:42;98650.50;;;33.29;27.86
9740;BME280;4909;42.680;26.324;2022-07-23T08:25:09;98644.56;;;33.32;27.02
9740;BME280;4909;42.680;26.324;2022-07-23T08:27:37;98653.47;;;33.34;27.37
9740;BME280;4909;42.680;26.324;2022-07-23T08:30:05;98654.75;;;33.44;26.56
9740;BME280;4909;42.680;26.324;2022-07-23T08:32:33;98656.59;;;33.70;26.65
9740;BME280;4909;42.680;26.324;2022-07-23T08:34:59;98657.66;;;33.89;25.95
9740;BME280;4909;42.680;26.324;2022-07-23T08:37:26;98648.28;;;33.96;26.79
9740;BME280;4909;42.680;26.324;2022-07-23T08:39:53;98656.06;;;34.13;26.97
9740;BME280;4909;42.680;26.324;2022-07-23T08:42:21;98662.41;;;34.20;26.12
9740;BME280;4909;42.680;26.324;2022-07-23T08:44:50;98651.38;;;34.26;25.95
9740;BME280;4909;42.680;26.324;2022-07-23T08:47:17;98655.69;;;34.47;26.37
9740;BME280;4909;42.680;26.324;2022-07-23T08:49:44;98621.84;;;34.40;26.23
9740;BME280;4909;42.680;26.324;2022-07-23T08:52:13;98653.06;;;34.65;25.76
9740;BME280;4909;42.680;26.324;2022-07-23T08:54:41;98657.75;;;34.65;25.86
9740;BME280;4909;42.680;26.324;2022-07-23T08:57:08;98658.81;;;34.70;25.78
9740;BME280;4909;42.680;26.324;2022-07-23T08:59:35;98651.31;;;34.77;26.11
9740;BME280;4909;42.680;26.324;2022-07-23T09:02:03;98652.22;;;34.96;25.57
9740;BME280;4909;42.680;26.324;2022-07-23T09:04:31;98655.34;;;35.06;25.20
9740;BME280;4909;42.680;26.324;2022-07-23T09:06:58;98654.66;;;35.11;25.04
9740;BME280;4909;42.680;26.324;2022-07-23T09:09:25;98651.06;;;35.17;25.44
9740;BME280;4909;42.680;26.324;2022-07-23T09:12:02;98650.06;;;35.29;25.57
9740;BME280;4909;42.680;26.324;2022-07-23T09:14:37;98628.84;;;35.30;25.88
9740;BME280;4909;42.680;26.324;2022-07-23T09:17:15;98627.66;;;35.44;25.95
9740;BME280;4909;42.680;26.324;2022-07-23T09:19:43;98633.06;;;35.57;25.41
9740;BME280;4909;42.680;26.324;2022-07-23T09:22:17;98644.34;;;35.74;25.38
9740;BME280;4909;42.680;26.324;2022-07-23T09:25:03;98639.16;;;35.84;24.91
9740;BME280;4909;42.680;26.324;2022-07-23T09:27:50;98637.31;;;35.96;24.42
9740;BME280;4909;42.680;26.324;2022-07-23T09:30:18;98635.00;;;35.93;24.62
9740;BME280;4909;42.680;26.324;2022-07-23T09:33:03;98634.56;;;35.96;24.78
9740;BME280;4909;42.680;26.324;2022-07-23T09:35:44;98611.34;;;35.61;24.92
9740;BME280;4909;42.680;26.324;2022-07-23T09:38:11;98623.44;;;35.66;24.40
9740;BME280;4909;42.680;26.324;2022-07-23T09:40:38;98609.94;;;35.77;24.78
9740;BME280;4909;42.680;26.324;2022-07-23T09:43:05;98612.69;;;35.77;24.73
9740;BME280;4909;42.680;26.324;2022-07-23T09:45:32;98616.22;;;35.84;24.08
9740;BME280;4909;42.680;26.324;2022-07-23T09:48:12;98613.53;;;35.77;24.94
9740;BME280;4909;42.680;26.324;2022-07-23T09:50:39;98597.81;;;35.96;24.60
9740;BME280;4909;42.680;26.324;2022-07-23T09:53:07;98613.69;;;36.19;23.83
9740;BME280;4909;42.680;26.324;2022-07-23T09:55:35;98603.94;;;36.16;24.30
9740;BME280;4909;42.680;26.324;2022-07-23T09:58:05;98601.28;;;36.39;24.10
9740;BME280;4909;42.680;26.324;2022-07-23T10:00:34;98597.31;;;36.35;23.88
9740;BME280;4909;42.680;26.324;2022-07-23T10:03:03;98589.88;;;36.36;23.73
9740;BME280;4909;42.680;26.324;2022-07-23T10:05:33;98597.75;;;36.32;24.13
9740;BME280;4909;42.680;26.324;2022-07-23T10:08:03;98596.94;;;35.95;23.69
9740;BME280;4909;42.680;26.324;2022-07-23T10:10:30;98595.41;;;36.17;23.52
9740;BME280;4909;42.680;26.324;2022-07-23T10:12:59;98592.72;;;36.29;24.14
9740;BME280;4909;42.680;26.324;2022-07-23T10:15:46;98599.59;;;36.68;24.08
9740;BME280;4909;42.680;26.324;2022-07-23T10:18:13;98593.88;;;36.51;23.70
9740;BME280;4909;42.680;26.324;2022-07-23T10:20:42;98590.38;;;36.56;23.61
9740;BME280;4909;42.680;26.324;2022-07-23T10:23:16;98566.22;;;36.51;23.16
9740;BME280;4909;42.680;26.324;2022-07-23T10:25:49;98583.16;;;36.85;23.56
9740;BME280;4909;42.680;26.324;2022-07-23T10:28:46;98578.78;;;36.66;23.17
9740;BME280;4909;42.680;26.324;2022-07-23T10:31:28;98576.63;;;36.68;23.84
9740;BME280;4909;42.680;26.324;2022-07-23T10:34:10;98574.00;;;36.84;23.53
9740;BME280;4909;42.680;26.324;2022-07-23T10:36:44;98571.59;;;36.65;23.25
9740;BME280;4909;42.680;26.324;2022-07-23T10:39:19;98576.50;;;36.63;23.05
9740;BME280;4909;42.680;26.324;2022-07-23T10:41:48;98561.47;;;36.70;23.15
9740;BME280;4909;42.680;26.324;2022-07-23T10:44:17;98556.66;;;36.66;23.20
9740;BME280;4909;42.680;26.324;2022-07-23T10:46:56;98543.63;;;36.54;23.31
9740;BME280;4909;42.680;26.324;2022-07-23T10:49:33;98550.94;;;36.79;23.76
9740;BME280;4909;42.680;26.324;2022-07-23T10:52:23;98559.25;;;37.02;23.04
9740;BME280;4909;42.680;26.324;2022-07-23T10:54:53;98547.38;;;37.13;23.03
9740;BME280;4909;42.680;26.324;2022-07-23T10:57:21;98543.78;;;37.13;23.07
9740;BME280;4909;42.680;26.324;2022-07-23T11:00:20;98539.84;;;36.67;23.81
9740;BME280;4909;42.680;26.324;2022-07-23T11:02:48;98544.41;;;36.32;23.60
9740;BME280;4909;42.680;26.324;2022-07-23T11:05:17;98532.53;;;36.43;23.71
9740;BME280;4909;42.680;26.324;2022-07-23T11:08:17;98530.84;;;36.30;24.10
9740;BME280;4909;42.680;26.324;2022-07-23T11:10:48;98537.94;;;35.90;24.05
9740;BME280;4909;42.680;26.324;2022-07-23T11:13:48;98517.63;;;35.84;24.00
9740;BME280;4909;42.680;26.324;2022-07-23T11:16:24;98524.78;;;36.03;24.29
9740;BME280;4909;42.680;26.324;2022-07-23T11:19:05;98512.41;;;36.24;24.28
9740;BME280;4909;42.680;26.324;2022-07-23T11:21:46;98520.38;;;36.32;23.45
9740;BME280;4909;42.680;26.324;2022-07-23T11:24:20;98513.34;;;36.18;24.12
9740;BME280;4909;42.680;26.324;2022-07-23T11:26:53;98520.44;;;36.14;23.70
9740;BME280;4909;42.680;26.324;2022-07-23T11:29:40;98517.03;;;35.82;24.22
9740;BME280;4909;42.680;26.324;2022-07-23T11:32:09;98506.69;;;35.78;23.57
9740;BME280;4909;42.680;26.324;2022-07-23T11:34:45;98508.97;;;35.81;24.03
9740;BME280;4909;42.680;26.324;2022-07-23T11:37:27;98477.97;;;35.79;24.32
9740;BME280;4909;42.680;26.324;2022-07-23T11:39:56;98510.03;;;35.80;23.08
9740;BME280;4909;42.680;26.324;2022-07-23T11:42:24;98501.97;;;35.78;24.16
9740;BME280;4909;42.680;26.324;2022-07-23T11:44:51;98504.22;;;35.69;24.06
9740;BME280;4909;42.680;26.324;2022-07-23T11:47:22;98494.16;;;35.75;23.80
9740;BME280;4909;42.680;26.324;2022-07-23T11:49:52;98491.19;;;35.77;24.17
9740;BME280;4909;42.680;26.324;2022-07-23T11:52:19;98496.00;;;35.81;24.18
9740;BME280;4909;42.680;26.324;2022-07-23T11:54:51;98482.94;;;35.88;23.96
9740;BME280;4909;42.680;26.324;2022-07-23T11:57:23;98487.75;;;35.93;23.73
9740;BME280;4909;42.680;26.324;2022-07-23T11:59:53;98480.56;;;35.92;24.19
9740;BME280;4909;42.680;26.324;2022-07-23T12:02:21;98493.28;;;35.93;23.88
9740;BME280;4909;42.680;26.324;2022-07-23T12:04:50;98485.00;;;35.93;23.62
9740;BME280;4909;42.680;26.324;2022-07-23T12:07:28;98487.72;;;35.81;23.21
9740;BME280;4909;42.680;26.324;2022-07-23T12:09:56;98494.94;;;35.82;22.67
9740;BME280;4909;42.680;26.324;2022-07-23T12:12:25;98490.56;;;35.74;22.89
9740;BME280;4909;42.680;26.324;2022-07-23T12:14:54;98490.38;;;35.88;22.98
9740;BME280;4909;42.680;26.324;2022-07-23T12:17:28;98487.31;;;35.96;22.84
9740;BME280;4909;42.680;26.324;2022-07-23T12:19:56;98477.31;;;35.95;23.06
9740;BME280;4909;42.680;26.324;2022-07-23T12:22:23;98482.38;;;35.98;22.93
9740;BME280;4909;42.680;26.324;2022-07-23T12:24:56;98476.56;;;35.88;23.09
9740;BME280;4909;42.680;26.324;2022-07-23T12:27:25;98467.34;;;35.94;23.29
9740;BME280;4909;42.680;26.324;2022-07-23T12:29:52;98470.59;;;35.91;23.03
9740;BME280;4909;42.680;26.324;2022-07-23T12:32:21;98474.19;;;35.91;23.46
9740;BME280;4909;42.680;26.324;2022-07-23T12:34:50;98473.72;;;35.94;23.05
9740;BME280;4909;42.680;26.324;2022-07-23T12:37:31;98440.47;;;35.71;22.73
9740;BME280;4909;42.680;26.324;2022-07-23T12:39:58;98452.53;;;35.77;22.80
9740;BME280;4909;42.680;26.324;2022-07-23T12:42:47;98429.06;;;35.67;23.40
9740;BME280;4909;42.680;26.324;2022-07-23T12:45:19;98468.91;;;35.90;23.82
9740;BME280;4909;42.680;26.324;2022-07-23T12:47:54;98442.47;;;35.82;23.57
9740;BME280;4909;42.680;26.324;2022-07-23T12:50:44;98456.63;;;35.86;23.63
9740;BME280;4909;42.680;26.324;2022-07-23T12:53:14;98458.31;;;35.87;23.62
9740;BME280;4909;42.680;26.324;2022-07-23T12:55:44;98454.16;;;35.96;23.47
9740;BME280;4909;42.680;26.324;2022-07-23T12:58:14;98458.59;;;35.97;23.54
9740;BME280;4909;42.680;26.324;2022-07-23T13:01:04;98453.38;;;35.89;23.21
9740;BME280;4909;42.680;26.324;2022-07-23T13:03:37;98453.16;;;35.90;23.65
9740;BME280;4909;42.680;26.324;2022-07-23T13:06:06;98461.41;;;35.79;23.03
9740;BME280;4909;42.680;26.324;2022-07-23T13:08:35;98469.16;;;35.70;23.42
9740;BME280;4909;42.680;26.324;2022-07-23T13:11:03;98458.34;;;35.68;23.54
9740;BME280;4909;42.680;26.324;2022-07-23T13:13:34;98449.78;;;35.58;23.83
9740;BME280;4909;42.680;26.324;2022-07-23T13:16:01;98459.56;;;35.54;23.82
9740;BME280;4909;42.680;26.324;2022-07-23T13:18:29;98465.56;;;35.51;23.69
9740;BME280;4909;42.680;26.324;2022-07-23T13:20:56;98457.91;;;35.53;23.31